Time;durP1;ratioP1;P1;durP2;ratioP2;P2;SDS_P1;SDS_P2;PMS_P1;PMS_P2;Temp;Humidity;BMP_temperature;BMP_pressure;BME280_temperature;BME280_humidity;BME280_pressure;Samples;Min_cycle;Max_cycle;Signal;HPM_P1;HPM_P2
2021/08/26 00:07:24;;;;;;;;;9.25;9.00;;;;;23.31;43.46;101396.38;5058038;28;45774;-45
2021/08/26 00:09:50;;;;;;;;;11.25;10.25;;;;;23.30;43.54;101399.94;5058337;28;45442;-45
2021/08/26 00:12:15;;;;;;;;;9.25;9.25;;;;;23.29;43.29;101400.88;5057727;28;45592;-44
2021/08/26 00:14:41;;;;;;;;;11.50;9.25;;;;;23.29;43.57;101400.88;5058094;28;45577;-45
2021/08/26 00:17:06;;;;;;;;;8.75;7.25;;;;;23.29;43.32;101407.03;5057876;28;45450;-45
2021/08/26 00:19:31;;;;;;;;;9.50;9.50;;;;;23.29;43.35;101408.81;5058513;28;45292;-47
2021/08/26 00:21:57;;;;;;;;;11.50;9.25;;;;;23.29;43.60;101409.66;5058359;28;45499;-43
2021/08/26 00:24:22;;;;;;;;;10.25;8.75;;;;;23.30;43.60;101402.59;5057634;28;45966;-43
2021/08/26 00:26:48;;;;;;;;;9.25;8.75;;;;;23.29;43.78;101406.19;5057855;28;45368;-44
2021/08/26 00:29:14;;;;;;;;;11.00;11.00;;;;;23.29;43.65;101406.19;5057899;28;45293;-43
2021/08/26 00:31:39;;;;;;;;;8.50;8.50;;;;;23.28;43.67;101412.41;5057980;28;45379;-44
2021/08/26 00:34:04;;;;;;;;;9.50;8.00;;;;;23.28;43.91;101407.13;5057493;28;45456;-45
2021/08/26 00:36:30;;;;;;;;;8.50;7.75;;;;;23.26;43.85;101401.91;5058042;28;45375;-45
2021/08/26 00:38:55;;;;;;;;;8.25;8.25;;;;;23.25;43.95;101413.44;5057702;28;45312;-43
2021/08/26 00:41:23;;;;;;;;;8.50;5.75;;;;;23.27;43.79;101406.25;5057761;28;45543;-44
2021/08/26 00:43:48;;;;;;;;;8.00;6.00;;;;;23.27;43.81;101403.59;5057580;28;45635;-45
2021/08/26 00:46:14;;;;;;;;;8.50;8.25;;;;;23.26;43.95;101409.84;5057488;28;45336;-44
2021/08/26 00:48:44;;;;;;;;;9.00;7.00;;;;;23.26;43.80;101403.72;5057632;28;45349;-45
2021/08/26 00:51:09;;;;;;;;;8.75;8.75;;;;;23.25;44.04;101399.34;5057846;28;45316;-45
2021/08/26 00:53:35;;;;;;;;;8.00;7.00;;;;;23.27;43.85;101408.91;5057246;28;46238;-50
2021/08/26 00:56:00;;;;;;;;;8.00;8.00;;;;;23.26;44.09;101406.34;5057676;28;45320;-44
2021/08/26 00:58:29;;;;;;;;;8.00;8.00;;;;;23.25;43.67;101400.22;5057432;28;45332;-44
2021/08/26 01:01:07;;;;;;;;;7.50;7.50;;;;;23.27;43.97;101402.78;5057935;28;45502;-45
2021/08/26 01:03:40;;;;;;;;;7.00;7.00;;;;;23.26;43.86;101398.41;5039371;28;48399;-44
2021/08/26 01:06:13;;;;;;;;;7.25;7.25;;;;;23.25;44.18;101394.94;5039293;28;45329;-45
2021/08/26 01:08:47;;;;;;;;;7.00;7.00;;;;;23.25;44.22;101394.06;5057304;28;45209;-44
2021/08/26 01:11:16;;;;;;;;;7.50;7.00;;;;;23.24;44.24;101393.22;5057462;28;45229;-44
2021/08/26 01:13:45;;;;;;;;;7.00;7.00;;;;;23.24;43.94;101389.72;5056872;28;45652;-44
2021/08/26 01:16:15;;;;;;;;;6.50;5.00;;;;;23.22;44.00;101397.75;5057153;28;45372;-44
2021/08/26 01:18:43;;;;;;;;;6.25;6.25;;;;;23.22;44.17;101394.22;5057104;28;45241;-45
2021/08/26 01:21:12;;;;;;;;;7.00;6.75;;;;;23.23;44.09;101385.38;5057221;28;45451;-44
2021/08/26 01:23:42;;;;;;;;;5.00;5.00;;;;;23.20;44.39;101389.03;5056408;28;46419;-44
2021/08/26 01:26:15;;;;;;;;;5.50;5.50;;;;;23.23;44.29;101388.00;5038614;28;45789;-44
2021/08/26 01:28:42;;;;;;;;;7.50;7.50;;;;;23.22;44.14;101392.47;5057192;28;45398;-44
2021/08/26 01:31:08;;;;;;;;;6.75;6.75;;;;;23.20;43.84;101389.03;5057140;28;45510;-48
2021/08/26 01:33:35;;;;;;;;;5.50;5.50;;;;;23.20;44.04;101385.56;5056955;28;45464;-44
2021/08/26 01:36:02;;;;;;;;;5.50;5.50;;;;;23.21;44.05;101384.59;5039077;28;45748;-44
2021/08/26 01:38:28;;;;;;;;;6.00;5.00;;;;;23.20;43.74;101381.13;5056694;28;45254;-45
2021/08/26 01:40:54;;;;;;;;;7.50;6.00;;;;;23.20;44.13;101367.06;5056980;28;45654;-44
2021/08/26 01:43:19;;;;;;;;;5.00;5.00;;;;;23.19;44.28;101363.53;5056694;28;46458;-44
2021/08/26 01:45:48;;;;;;;;;4.50;4.50;;;;;23.19;44.21;101368.81;5056663;28;45367;-44
2021/08/26 01:48:17;;;;;;;;;5.00;5.00;;;;;23.19;44.22;101367.97;5056706;28;45360;-44
2021/08/26 01:50:44;;;;;;;;;6.75;5.25;;;;;23.19;44.47;101371.47;5056903;28;45230;-44
2021/08/26 01:53:10;;;;;;;;;4.75;4.00;;;;;23.17;44.13;101375.97;5056334;28;45372;-44
2021/08/26 01:55:35;;;;;;;;;4.25;4.25;;;;;23.14;44.08;101374.34;5056746;28;45389;-43
2021/08/26 01:58:00;;;;;;;;;4.25;4.25;;;;;23.15;44.23;101367.28;5056773;28;45289;-45
2021/08/26 02:00:26;;;;;;;;;3.25;2.75;;;;;23.14;44.11;101373.53;5056526;28;45442;-44
2021/08/26 02:02:51;;;;;;;;;3.75;3.75;;;;;23.13;44.43;101370.00;5056387;28;46556;-44
2021/08/26 02:05:17;;;;;;;;;4.00;4.00;;;;;23.13;44.13;101375.28;5056365;28;45426;-45
2021/08/26 02:07:46;;;;;;;;;4.25;3.50;;;;;23.12;44.26;101363.00;5056592;28;45447;-46
2021/08/26 02:10:12;;;;;;;;;3.50;3.50;;;;;23.12;44.27;101362.19;5056625;28;45502;-44
2021/08/26 02:12:37;;;;;;;;;7.50;5.00;;;;;23.11;44.35;101356.00;5056789;28;46330;-45
2021/08/26 02:15:03;;;;;;;;;4.00;4.00;;;;;23.11;44.30;101361.31;5056125;28;47748;-44
2021/08/26 02:17:28;;;;;;;;;4.00;4.00;;;;;23.12;44.22;101363.00;5056262;28;45181;-44
2021/08/26 02:19:54;;;;;;;;;5.00;3.25;;;;;23.13;44.34;101361.25;5056467;28;45221;-43
2021/08/26 02:22:19;;;;;;;;;4.00;4.00;;;;;23.12;44.72;101360.38;5056080;28;45331;-44
2021/08/26 02:24:44;;;;;;;;;3.25;3.25;;;;;23.13;44.33;101363.88;5056034;28;45217;-44
2021/08/26 02:27:10;;;;;;;;;4.00;4.00;;;;;23.11;44.35;101361.31;5056033;28;46679;-46
2021/08/26 02:29:35;;;;;;;;;3.50;3.50;;;;;23.12;44.17;101360.38;5056689;28;45232;-44
2021/08/26 02:32:00;;;;;;;;;4.00;4.00;;;;;23.11;44.40;101349.91;5055966;28;46595;-43
2021/08/26 02:34:26;;;;;;;;;3.75;2.50;;;;;23.12;44.37;101354.25;5056073;28;45324;-45
2021/08/26 02:36:51;;;;;;;;;3.25;3.25;;;;;23.11;44.43;101361.31;5058494;28;45451;-43
2021/08/26 02:39:16;;;;;;;;;4.00;3.00;;;;;23.10;44.32;101356.97;5059803;28;45423;-45
2021/08/26 02:41:42;;;;;;;;;6.25;4.00;;;;;23.10;44.25;101354.31;5059440;28;46322;-44
2021/08/26 02:44:07;;;;;;;;;3.00;3.00;;;;;23.11;44.25;101365.75;5059827;28;45328;-44
2021/08/26 02:46:33;;;;;;;;;4.00;4.00;;;;;23.11;44.23;101358.66;5059580;28;45323;-44
2021/08/26 02:48:58;;;;;;;;;2.50;2.50;;;;;23.09;44.23;101360.56;5059643;28;45601;-44
2021/08/26 02:51:23;;;;;;;;;3.25;3.25;;;;;23.10;44.06;101353.47;5059333;28;46322;-45
2021/08/26 02:53:49;;;;;;;;;2.25;2.00;;;;;23.09;44.50;101349.13;5041148;28;45338;-45
2021/08/26 02:56:14;;;;;;;;;3.00;3.00;;;;;23.09;44.50;101352.63;5059369;28;45513;-46
2021/08/26 02:58:40;;;;;;;;;4.00;4.00;;;;;23.08;44.24;101345.66;5059741;28;45832;-44
2021/08/26 03:01:05;;;;;;;;;3.75;3.75;;;;;23.08;44.36;101344.78;5059315;28;47059;-43
2021/08/26 03:03:30;;;;;;;;;3.25;3.25;;;;;23.08;44.03;101348.28;5059115;28;45414;-44
2021/08/26 03:05:56;;;;;;;;;4.00;4.00;;;;;23.08;44.24;101344.78;5059359;28;45397;-44
2021/08/26 03:08:21;;;;;;;;;4.00;4.00;;;;;23.09;44.39;101352.63;5059537;28;45605;-44
2021/08/26 03:10:46;;;;;;;;;4.25;4.25;;;;;23.09;44.22;101349.13;5058993;28;46219;-44
2021/08/26 03:13:12;;;;;;;;;2.00;2.00;;;;;23.07;44.50;101349.22;5059002;28;45327;-48
2021/08/26 03:15:37;;;;;;;;;3.00;2.25;;;;;23.08;44.05;101350.94;5059377;28;45407;-44
2021/08/26 03:18:03;;;;;;;;;2.00;2.00;;;;;23.08;44.13;101345.66;5059031;28;45353;-44
2021/08/26 03:20:28;;;;;;;;;4.75;3.00;;;;;23.06;44.25;101342.22;5058870;28;45944;-44
2021/08/26 03:22:53;;;;;;;;;3.00;3.00;;;;;23.06;44.47;101347.53;5058969;28;45427;-44
2021/08/26 03:25:19;;;;;;;;;3.00;2.75;;;;;23.07;44.27;101343.94;5059115;28;45285;-44
2021/08/26 03:27:45;;;;;;;;;3.25;3.00;;;;;23.05;44.21;101337.88;5059059;28;45582;-44
2021/08/26 03:30:12;;;;;;;;;2.75;2.50;;;;;23.06;44.42;101338.72;5058885;28;45456;-44
2021/08/26 03:32:37;;;;;;;;;2.75;2.75;;;;;23.06;44.32;101333.44;5059092;28;45441;-44
2021/08/26 03:35:04;;;;;;;;;2.00;2.00;;;;;23.05;44.42;101335.25;5058780;28;45451;-44
2021/08/26 03:37:29;;;;;;;;;3.25;2.00;;;;;23.05;44.28;101335.25;5058643;28;45411;-44
2021/08/26 03:39:55;;;;;;;;;2.00;2.00;;;;;23.05;44.15;101337.00;5058473;28;46379;-44
2021/08/26 03:42:20;;;;;;;;;2.25;2.25;;;;;23.05;44.56;101345.81;5058477;28;45339;-44
2021/08/26 03:44:45;;;;;;;;;3.25;3.25;;;;;23.04;44.26;101344.09;5058696;28;45519;-45
2021/08/26 03:47:11;;;;;;;;;4.75;2.25;;;;;23.04;44.31;101343.28;5058426;28;45494;-44
2021/08/26 03:49:36;;;;;;;;;1.25;1.00;;;;;23.03;44.23;101339.75;5058360;28;45255;-44
2021/08/26 03:52:03;;;;;;;;;2.00;2.00;;;;;23.02;44.32;101340.69;5058357;28;45183;-44
2021/08/26 03:54:28;;;;;;;;;3.00;1.25;;;;;23.01;44.29;101339.00;5058619;28;45259;-45
2021/08/26 03:56:53;;;;;;;;;2.50;2.00;;;;;23.01;44.08;101344.28;5058713;28;45489;-44
2021/08/26 03:59:19;;;;;;;;;2.00;2.00;;;;;23.00;44.06;101337.28;5057696;28;47012;-44
2021/08/26 04:01:44;;;;;;;;;0.00;0.00;;;;;22.99;44.32;101336.44;5058290;28;45209;-45
2021/08/26 04:04:10;;;;;;;;;4.00;3.00;;;;;22.99;44.27;101335.56;5057452;28;45273;-44
2021/08/26 04:06:35;;;;;;;;;1.00;1.00;;;;;22.98;44.34;101333.91;5058604;28;45570;-44
2021/08/26 04:09:00;;;;;;;;;2.50;2.50;;;;;22.97;44.39;101337.47;5058124;28;46668;-44
2021/08/26 04:11:26;;;;;;;;;2.25;2.25;;;;;22.96;44.18;101331.31;5058226;28;45339;-44
2021/08/26 04:13:51;;;;;;;;;2.25;2.25;;;;;22.98;44.40;101344.47;5058212;28;45419;-45
2021/08/26 04:16:17;;;;;;;;;2.00;2.00;;;;;22.98;44.38;101347.97;5058491;28;45541;-43
2021/08/26 04:18:42;;;;;;;;;2.00;2.00;;;;;22.98;44.23;101352.41;5040202;28;46027;-50
2021/08/26 04:21:09;;;;;;;;;1.75;1.75;;;;;22.96;44.36;101355.13;5057914;28;45834;-44
2021/08/26 04:23:34;;;;;;;;;2.00;2.00;;;;;22.97;44.28;101353.34;5058312;28;45351;-43
2021/08/26 04:25:59;;;;;;;;;3.00;3.00;;;;;22.95;44.25;101347.28;5058424;28;45575;-44
2021/08/26 04:28:25;;;;;;;;;1.75;1.75;;;;;22.95;44.25;101340.19;5057911;28;45328;-43
2021/08/26 04:30:50;;;;;;;;;2.00;2.00;;;;;22.96;44.37;101344.53;5057761;28;45378;-43
2021/08/26 04:33:15;;;;;;;;;2.25;2.25;;;;;22.95;44.27;101350.78;5057784;28;45310;-44
2021/08/26 04:35:41;;;;;;;;;3.00;3.00;;;;;22.94;44.36;101349.06;5040191;28;45600;-44
2021/08/26 04:38:06;;;;;;;;;2.25;2.25;;;;;22.95;44.34;101339.34;5057600;28;45711;-44
2021/08/26 04:40:31;;;;;;;;;2.00;2.00;;;;;22.94;44.12;101329.72;5057560;28;45324;-44
2021/08/26 04:42:57;;;;;;;;;2.00;2.00;;;;;22.94;44.41;101333.19;5057869;28;45305;-46
2021/08/26 04:45:23;;;;;;;;;2.00;2.00;;;;;22.93;44.23;101331.50;5039911;28;45236;-45
2021/08/26 04:47:48;;;;;;;;;3.00;3.00;;;;;22.93;44.02;101326.22;5057471;28;45390;-42
2021/08/26 04:50:13;;;;;;;;;2.75;2.00;;;;;22.93;44.32;101338.59;5057827;28;45196;-43
2021/08/26 04:52:39;;;;;;;;;2.75;1.75;;;;;22.92;44.37;101329.81;5057589;28;45209;-48
2021/08/26 04:55:04;;;;;;;;;1.50;1.50;;;;;22.92;44.42;101332.47;5057713;28;45277;-47
2021/08/26 04:57:30;;;;;;;;;3.25;2.00;;;;;22.92;44.48;101328.94;5057187;28;47189;-43
2021/08/26 04:59:55;;;;;;;;;4.00;3.00;;;;;22.90;44.54;101334.34;5057178;28;45526;-44
2021/08/26 05:02:20;;;;;;;;;2.00;2.00;;;;;22.90;44.53;101342.28;5057477;28;45410;-45
2021/08/26 05:04:45;;;;;;;;;1.75;1.75;;;;;22.90;44.62;101336.97;5057925;28;45454;-46
2021/08/26 05:07:11;;;;;;;;;1.50;1.50;;;;;22.91;44.58;101332.53;5057058;28;50368;-44
2021/08/26 05:09:36;;;;;;;;;3.00;3.00;;;;;22.92;44.35;101334.25;5057322;28;45502;-43
2021/08/26 05:12:04;;;;;;;;;3.00;3.00;;;;;22.91;44.47;101338.69;5057271;28;45421;-46
2021/08/26 05:14:31;;;;;;;;;1.00;1.00;;;;;22.91;44.56;101341.34;5057364;28;45543;-44
2021/08/26 05:16:58;;;;;;;;;1.50;1.50;;;;;22.91;44.59;101332.53;5056957;28;45594;-43
2021/08/26 05:19:23;;;;;;;;;5.00;3.00;;;;;22.92;44.78;101339.53;5057030;28;45858;-44
2021/08/26 05:21:49;;;;;;;;;2.25;2.00;;;;;22.92;44.37;101331.59;5057223;28;45338;-44
2021/08/26 05:24:14;;;;;;;;;3.00;3.00;;;;;22.93;44.49;101333.31;5057717;28;45214;-45
2021/08/26 05:26:39;;;;;;;;;2.75;2.75;;;;;22.93;44.59;101341.22;5057081;28;45332;-46
2021/08/26 05:29:05;;;;;;;;;2.00;2.00;;;;;22.94;44.67;101335.00;5057023;28;45236;-44
2021/08/26 05:31:30;;;;;;;;;3.00;2.00;;;;;22.93;44.41;101333.31;5057111;28;45310;-44
2021/08/26 05:33:55;;;;;;;;;3.25;2.25;;;;;22.94;44.61;101340.28;5055864;28;45537;-45
2021/08/26 05:36:21;;;;;;;;;2.25;1.25;;;;;22.94;44.51;101337.66;5056263;28;57348;-44
2021/08/26 05:38:46;;;;;;;;;1.00;1.00;;;;;22.94;44.88;101341.13;5056915;28;45246;-43
2021/08/26 05:41:11;;;;;;;;;2.00;2.00;;;;;22.94;44.69;101342.94;5056834;28;45293;-44
2021/08/26 05:43:36;;;;;;;;;1.25;1.25;;;;;22.95;44.61;101339.34;5056904;28;45315;-44
2021/08/26 05:46:05;;;;;;;;;3.00;2.00;;;;;22.94;44.41;101335.00;5038536;28;48027;-45
2021/08/26 05:48:30;;;;;;;;;3.75;1.25;;;;;22.94;44.71;101332.38;5055260;28;45381;-44
2021/08/26 05:50:55;;;;;;;;;1.50;1.50;;;;;22.94;44.78;101335.00;5056765;28;45389;-44
2021/08/26 05:53:21;;;;;;;;;1.00;1.00;;;;;22.94;44.67;101327.06;5056643;28;45370;-44
2021/08/26 05:55:47;;;;;;;;;1.00;1.00;;;;;22.94;44.69;101337.66;5056787;28;47517;-44
2021/08/26 05:58:13;;;;;;;;;1.00;1.00;;;;;22.94;44.74;101338.50;5056343;28;45651;-44
2021/08/26 06:00:38;;;;;;;;;1.75;1.75;;;;;22.94;44.79;101333.19;5056420;28;45271;-43
2021/08/26 06:03:04;;;;;;;;;2.00;2.00;;;;;22.93;44.72;101328.03;5056617;28;45445;-43
2021/08/26 06:05:29;;;;;;;;;2.00;2.00;;;;;22.94;44.57;101337.66;5056279;28;46163;-44
2021/08/26 06:07:54;;;;;;;;;2.25;2.00;;;;;22.93;44.69;101330.66;5056723;28;45332;-44
2021/08/26 06:10:20;;;;;;;;;2.50;2.00;;;;;22.94;44.87;101337.66;5056077;28;45342;-44
2021/08/26 06:12:45;;;;;;;;;3.00;1.50;;;;;22.93;44.84;101331.50;5056677;28;45455;-43
2021/08/26 06:15:12;;;;;;;;;3.25;2.00;;;;;22.93;44.68;101335.94;5056273;28;45665;-45
2021/08/26 06:17:37;;;;;;;;;2.00;2.00;;;;;22.93;44.91;101333.31;5056147;28;45710;-45
2021/08/26 06:20:05;;;;;;;;;3.00;1.50;;;;;22.93;44.89;101342.06;5056364;28;45450;-44
2021/08/26 06:22:30;;;;;;;;;2.25;1.25;;;;;22.93;44.70;101336.78;5056392;28;45860;-44
2021/08/26 06:24:56;;;;;;;;;1.25;1.25;;;;;22.93;44.78;101341.22;5056088;28;45476;-44
2021/08/26 06:27:21;;;;;;;;;3.75;2.75;;;;;22.92;44.82;101339.53;5056215;28;45385;-45
2021/08/26 06:29:46;;;;;;;;;1.50;1.50;;;;;22.92;44.89;101350.09;5056555;28;45619;-47
2021/08/26 06:32:12;;;;;;;;;2.50;2.50;;;;;22.91;45.15;101343.09;5056325;28;45494;-45
2021/08/26 06:34:37;;;;;;;;;2.00;2.00;;;;;22.92;45.15;101347.47;5055825;28;46401;-47
2021/08/26 06:37:03;;;;;;;;;3.00;1.50;;;;;22.91;45.10;101341.34;5055927;28;45276;-44
2021/08/26 06:39:28;;;;;;;;;4.00;3.00;;;;;22.93;45.24;101349.16;5054659;28;45303;-44
2021/08/26 06:41:55;;;;;;;;;3.50;2.00;;;;;22.94;44.83;101348.22;5056018;28;45425;-44
2021/08/26 06:44:20;;;;;;;;;1.75;1.25;;;;;22.94;44.94;101346.41;5056007;28;45371;-44
2021/08/26 06:46:45;;;;;;;;;3.25;2.00;;;;;22.94;45.02;101340.28;5055847;28;45522;-44
2021/08/26 06:49:11;;;;;;;;;4.00;1.25;;;;;22.94;44.94;101337.66;5055790;28;45384;-44
2021/08/26 06:51:36;;;;;;;;;3.00;1.00;;;;;22.95;45.02;101344.66;5056139;28;45567;-44
2021/08/26 06:54:01;;;;;;;;;1.75;1.75;;;;;22.95;44.93;101344.66;5055584;28;45935;-45
2021/08/26 06:56:27;;;;;;;;;2.00;2.00;;;;;22.96;45.08;101341.06;5056074;28;45416;-45
2021/08/26 06:58:52;;;;;;;;;3.50;3.00;;;;;22.95;44.97;101348.13;5037915;28;45454;-45
2021/08/26 07:01:18;;;;;;;;;1.00;1.00;;;;;22.95;44.81;101350.78;5056301;28;45427;-44
2021/08/26 07:03:43;;;;;;;;;2.50;1.00;;;;;22.94;45.04;101338.50;5055296;28;45410;-44
2021/08/26 07:06:08;;;;;;;;;2.00;1.50;;;;;22.97;45.31;101334.84;5055341;28;48554;-45
2021/08/26 07:08:33;;;;;;;;;2.00;2.00;;;;;22.97;45.20;101337.47;5055658;28;45319;-45
2021/08/26 07:10:59;;;;;;;;;1.75;1.75;;;;;22.97;44.91;101340.13;5055950;28;45371;-45
2021/08/26 07:13:24;;;;;;;;;3.00;3.00;;;;;22.97;44.91;101342.78;5055254;28;46278;-44
2021/08/26 07:15:49;;;;;;;;;1.00;1.00;;;;;22.97;45.43;101343.59;5055693;28;45378;-44
2021/08/26 07:18:18;;;;;;;;;2.00;2.00;;;;;22.97;45.18;101340.97;5055413;28;45395;-44
2021/08/26 07:20:44;;;;;;;;;1.00;1.00;;;;;22.98;44.73;101340.03;5056023;28;45384;-44
2021/08/26 07:23:09;;;;;;;;;2.00;2.00;;;;;22.98;45.21;101333.91;5056933;28;45311;-44
2021/08/26 07:25:34;;;;;;;;;1.00;1.00;;;;;22.99;45.11;101340.88;5058876;28;45460;-44
2021/08/26 07:28:00;;;;;;;;;2.50;2.50;;;;;22.99;45.17;101335.56;5058727;28;45371;-44
2021/08/26 07:30:26;;;;;;;;;3.00;3.00;;;;;22.99;45.32;101338.22;5058018;28;45622;-44
2021/08/26 07:32:52;;;;;;;;;2.50;2.50;;;;;22.99;45.53;101336.44;5058789;28;46442;-42
2021/08/26 07:35:17;;;;;;;;;4.00;4.00;;;;;22.98;45.62;101334.75;5058656;28;45386;-43
2021/08/26 07:37:43;;;;;;;;;6.25;4.00;;;;;22.97;45.66;101335.69;5058681;28;45338;-44
2021/08/26 07:40:11;;;;;;;;;6.00;4.00;;;;;22.94;46.05;101332.38;5058828;28;45574;-44
2021/08/26 07:42:37;;;;;;;;;4.25;4.00;;;;;22.91;45.87;101337.81;5058376;28;45375;-44
2021/08/26 07:45:03;;;;;;;;;6.00;5.00;;;;;22.85;46.24;101333.75;5058700;28;45347;-44
2021/08/26 07:47:30;;;;;;;;;4.50;4.50;;;;;22.81;46.42;101334.88;5058665;28;45265;-45
2021/08/26 07:49:56;;;;;;;;;3.50;3.00;;;;;22.78;46.70;101332.41;5058765;28;45462;-44
2021/08/26 07:52:22;;;;;;;;;9.75;4.25;;;;;22.74;46.79;101336.13;5058687;28;45426;-43
2021/08/26 07:54:47;;;;;;;;;5.75;5.25;;;;;22.72;46.70;101338.88;5058551;28;45486;-43
2021/08/26 07:57:12;;;;;;;;;6.50;4.75;;;;;22.68;46.87;101332.94;5058547;28;45407;-44
2021/08/26 07:59:38;;;;;;;;;5.75;3.25;;;;;22.66;47.02;101341.84;5058297;28;45626;-44
2021/08/26 08:02:03;;;;;;;;;10.25;4.00;;;;;22.62;47.22;101340.34;5058308;28;45569;-46
2021/08/26 08:04:29;;;;;;;;;8.75;4.00;;;;;22.60;47.20;101347.50;5058136;28;45402;-46
2021/08/26 08:06:54;;;;;;;;;7.00;6.75;;;;;22.55;47.47;101348.59;5058523;28;45438;-45
2021/08/26 08:09:19;;;;;;;;;5.50;3.75;;;;;22.50;47.68;101345.38;5058424;28;45537;-44
2021/08/26 08:11:44;;;;;;;;;5.75;4.25;;;;;22.48;47.47;101341.13;5058017;28;45370;-44
2021/08/26 08:14:10;;;;;;;;;3.25;3.25;;;;;22.47;47.63;101342.06;5058153;28;45412;-44
2021/08/26 08:16:35;;;;;;;;;6.75;5.25;;;;;22.47;47.83;101339.41;5058312;28;45383;-44
2021/08/26 08:19:02;;;;;;;;;5.75;5.75;;;;;22.49;47.73;101343.66;5056916;28;45506;-44
2021/08/26 08:21:27;;;;;;;;;4.00;4.00;;;;;22.52;47.88;101340.88;5057632;28;46270;-44
2021/08/26 08:23:53;;;;;;;;;3.25;3.25;;;;;22.54;47.61;101340.78;5058275;28;45313;-44
2021/08/26 08:26:18;;;;;;;;;6.00;4.50;;;;;22.57;47.68;101345.88;5040009;28;45359;-44
2021/08/26 08:28:43;;;;;;;;;4.00;4.00;;;;;22.58;47.55;101336.16;5057751;28;45400;-44
2021/08/26 08:31:09;;;;;;;;;5.75;4.25;;;;;22.61;47.78;101347.41;5057551;28;46412;-44
2021/08/26 08:33:35;;;;;;;;;7.50;3.50;;;;;22.65;47.68;101335.72;5057392;28;45225;-44
2021/08/26 08:36:01;;;;;;;;;4.25;4.25;;;;;22.66;47.67;101341.84;5058037;28;45238;-44
2021/08/26 08:38:26;;;;;;;;;4.00;4.00;;;;;22.69;47.66;101345.19;5058063;28;45374;-44
2021/08/26 08:40:52;;;;;;;;;4.25;4.25;;;;;22.69;47.60;101328.47;5057655;28;45530;-47
2021/08/26 08:43:17;;;;;;;;;4.75;3.25;;;;;22.72;47.49;101338.88;5057827;28;45829;-44
2021/08/26 08:45:46;;;;;;;;;5.75;4.00;;;;;22.74;47.74;101337.00;5057839;28;45370;-46
2021/08/26 08:48:11;;;;;;;;;7.50;4.25;;;;;22.74;47.63;101337.00;5039739;28;45501;-45
2021/08/26 08:50:39;;;;;;;;;4.50;4.50;;;;;22.75;47.56;101336.06;5057272;28;45461;-44
2021/08/26 08:53:05;;;;;;;;;5.50;4.00;;;;;22.75;47.62;101336.06;5057499;28;45217;-44
2021/08/26 08:55:30;;;;;;;;;3.75;3.75;;;;;22.75;47.56;101343.13;5057673;28;45387;-45
2021/08/26 08:57:56;;;;;;;;;4.00;4.00;;;;;22.79;48.00;101342.03;5057924;28;45210;-44
2021/08/26 09:00:21;;;;;;;;;5.50;4.25;;;;;22.79;47.79;101339.38;5057270;28;46237;-43
2021/08/26 09:02:47;;;;;;;;;4.00;4.00;;;;;22.80;47.18;101336.66;5057363;28;45555;-44
2021/08/26 09:05:13;;;;;;;;;4.00;3.50;;;;;22.81;47.53;101334.88;5057489;28;45289;-44
2021/08/26 09:07:38;;;;;;;;;5.25;4.00;;;;;22.81;47.80;101332.22;5057563;28;45673;-44
2021/08/26 09:10:06;;;;;;;;;6.00;4.00;;;;;22.83;47.74;101338.25;5057142;28;45885;-44
2021/08/26 09:12:41;;;;;;;;;3.50;3.50;;;;;22.83;47.79;101340.91;5057134;28;45749;-44
2021/08/26 09:15:12;;;;;;;;;4.00;4.00;;;;;22.83;48.08;101336.47;5057227;28;45487;-44
2021/08/26 09:17:38;;;;;;;;;3.25;3.25;;;;;22.83;48.04;101339.13;5057300;28;45418;-43
2021/08/26 09:20:10;;;;;;;;;4.75;3.75;;;;;22.83;48.27;101332.97;5057011;28;46432;-44
2021/08/26 09:22:36;;;;;;;;;5.25;5.00;;;;;22.85;48.19;101334.59;5057132;28;45726;-44
2021/08/26 09:25:02;;;;;;;;;2.50;2.00;;;;;22.88;48.38;101340.63;5057248;28;45221;-44
2021/08/26 09:27:42;;;;;;;;;3.00;3.00;;;;;22.87;48.71;101346.88;5057427;28;45282;-45
2021/08/26 09:30:17;;;;;;;;;4.00;3.25;;;;;22.86;48.41;101335.44;5056911;28;46523;-44
2021/08/26 09:32:48;;;;;;;;;4.50;3.25;;;;;22.87;48.82;101338.97;5056889;28;45235;-44
2021/08/26 09:35:16;;;;;;;;;3.00;3.00;;;;;22.89;48.65;101340.56;5056921;28;45427;-45
2021/08/26 09:37:56;;;;;;;;;3.75;3.25;;;;;22.88;48.53;101332.69;5057009;28;45671;-44
2021/08/26 09:40:24;;;;;;;;;3.25;3.25;;;;;22.89;48.87;101330.00;5056836;28;45602;-44
2021/08/26 09:42:58;;;;;;;;;3.00;3.00;;;;;22.91;48.78;101335.19;5056679;28;45767;-45
2021/08/26 09:45:48;;;;;;;;;2.50;2.50;;;;;22.88;48.99;101328.28;5056008;28;45521;-44
2021/08/26 09:48:15;;;;;;;;;4.00;2.75;;;;;22.90;48.99;101334.34;5046056;28;45376;-44
2021/08/26 09:50:52;;;;;;;;;3.25;2.75;;;;;22.91;49.03;101328.13;5056529;28;46403;-45
2021/08/26 09:53:23;;;;;;;;;2.25;2.25;;;;;22.92;49.16;101326.31;5038610;28;45711;-43
2021/08/26 09:55:51;;;;;;;;;3.75;3.75;;;;;22.92;49.05;101326.31;5056596;28;45343;-43
2021/08/26 09:58:19;;;;;;;;;3.25;3.00;;;;;22.93;49.02;101325.38;5056829;28;45278;-44
2021/08/26 10:00:45;;;;;;;;;7.00;5.25;;;;;22.93;49.31;101325.38;5056162;28;45637;-44
2021/08/26 10:03:12;;;;;;;;;2.75;2.75;;;;;22.93;49.18;101320.91;5056419;28;45501;-44
2021/08/26 10:05:39;;;;;;;;;2.00;2.00;;;;;22.94;49.36;101325.28;5056627;28;45413;-45
2021/08/26 10:08:06;;;;;;;;;2.00;2.00;;;;;22.93;49.27;101325.38;5056807;28;45523;-45
2021/08/26 10:10:35;;;;;;;;;4.50;4.00;;;;;22.94;49.42;101327.91;5056689;28;46457;-43
2021/08/26 10:13:01;;;;;;;;;3.00;3.00;;;;;22.96;49.14;101322.56;5056696;28;45737;-43
2021/08/26 10:15:27;;;;;;;;;4.00;2.25;;;;;22.97;49.46;101321.63;5038345;28;45320;-44
2021/08/26 10:17:53;;;;;;;;;3.00;2.00;;;;;22.99;49.17;101317.06;5056529;28;45241;-44
2021/08/26 10:20:20;;;;;;;;;4.25;2.50;;;;;23.01;49.22;101323.13;5056104;28;46147;-43
2021/08/26 10:22:47;;;;;;;;;5.50;3.25;;;;;23.04;49.04;101315.03;5056247;28;45183;-45
2021/08/26 10:25:12;;;;;;;;;2.50;2.50;;;;;23.07;48.69;101316.63;5056426;28;45324;-42
2021/08/26 10:27:38;;;;;;;;;3.00;3.00;;;;;23.08;48.93;101313.91;5056496;28;45682;-44
2021/08/26 10:30:04;;;;;;;;;3.00;2.00;;;;;23.09;48.87;101310.34;5056058;28;46359;-42
2021/08/26 10:32:30;;;;;;;;;4.00;3.50;;;;;23.11;48.91;101303.13;5056342;28;45864;-44
2021/08/26 10:35:12;;;;;;;;;7.00;3.00;;;;;23.13;48.72;101301.25;5038267;28;45346;-43
2021/08/26 10:37:53;;;;;;;;;4.00;4.00;;;;;23.14;48.77;101308.25;5055107;28;45442;-44
2021/08/26 10:40:37;;;;;;;;;2.75;2.75;;;;;23.15;48.67;101307.31;5038500;28;47088;-43
2021/08/26 10:43:03;;;;;;;;;3.00;3.00;;;;;23.16;48.68;101306.38;5056537;28;45296;-40
2021/08/26 10:45:46;;;;;;;;;2.50;2.50;;;;;23.16;48.54;101303.72;5056463;28;45371;-45
2021/08/26 10:48:15;;;;;;;;;3.50;3.00;;;;;23.16;48.61;101301.09;5056119;28;45364;-45
2021/08/26 10:50:41;;;;;;;;;3.50;3.00;;;;;23.18;48.43;101308.91;5054639;28;47263;-47
2021/08/26 10:53:28;;;;;;;;;2.00;2.00;;;;;23.19;48.36;101299.22;5055840;28;45477;-44
2021/08/26 10:55:55;;;;;;;;;2.50;2.25;;;;;23.21;48.99;101297.34;5056075;28;45461;-43
2021/08/26 10:58:23;;;;;;;;;2.00;2.00;;;;;23.22;48.72;101314.91;5059248;28;45498;-47
2021/08/26 11:00:49;;;;;;;;;3.00;3.00;;;;;23.20;48.52;101315.00;5059284;28;45424;-46
2021/08/26 11:03:45;;;;;;;;;2.50;2.50;;;;;23.22;48.56;101312.25;5059239;28;45241;-46
2021/08/26 11:06:16;;;;;;;;;3.00;2.50;;;;;23.20;48.72;101325.59;5059497;28;45332;-45
2021/08/26 11:08:46;;;;;;;;;2.00;2.00;;;;;23.20;48.46;101330.03;5059525;28;45260;-46
2021/08/26 11:11:29;;;;;;;;;2.00;1.00;;;;;23.21;48.70;101329.06;5059190;28;45408;-48
2021/08/26 11:14:07;;;;;;;;;3.00;1.25;;;;;23.20;48.66;101324.75;5059212;28;45780;-45
2021/08/26 11:16:34;;;;;;;;;3.50;2.25;;;;;23.19;48.50;101330.94;5059741;28;45399;-43
2021/08/26 11:19:19;;;;;;;;;3.25;1.00;;;;;23.20;48.61;101332.69;5059338;28;45295;-43
2021/08/26 11:21:47;;;;;;;;;2.00;1.00;;;;;23.22;48.62;101329.00;5058912;28;47282;-45
2021/08/26 11:24:12;;;;;;;;;2.75;2.75;;;;;23.23;48.51;101321.91;5058961;28;45233;-43
2021/08/26 11:26:55;;;;;;;;;3.75;2.50;;;;;23.22;48.60;101326.34;5058993;28;45261;-48
2021/08/26 11:29:20;;;;;;;;;1.00;1.00;;;;;23.23;48.56;101321.91;5059148;28;45375;-45